sensor_id;sensor_type;location;lat;lon;timestamp;P1;durP1;ratioP1;P2;durP2;ratioP2
29412;SDS011;16389;50.126;8.450;2023-02-15T00:00:14;45.95;;;14.13;;
29412;SDS011;16389;50.126;8.450;2023-02-15T00:02:40;45.08;;;13.45;;
29412;SDS011;16389;50.126;8.450;2023-02-15T00:05:05;59.67;;;14.13;;
29412;SDS011;16389;50.126;8.450;2023-02-15T00:07:31;51.08;;;12.38;;
29412;SDS011;16389;50.126;8.450;2023-02-15T00:09:57;54.97;;;13.65;;
29412;SDS011;16389;50.126;8.450;2023-02-15T00:12:23;47.65;;;12.57;;
29412;SDS011;16389;50.126;8.450;2023-02-15T00:14:49;40.25;;;13.50;;
29412;SDS011;16389;50.126;8.450;2023-02-15T00:17:14;43.05;;;11.82;;
29412;SDS011;16389;50.126;8.450;2023-02-15T00:19:40;47.22;;;12.40;;
29412;SDS011;16389;50.126;8.450;2023-02-15T00:22:06;45.58;;;12.30;;
29412;SDS011;16389;50.126;8.450;2023-02-15T00:24:32;68.10;;;13.77;;
29412;SDS011;16389;50.126;8.450;2023-02-15T00:26:57;42.42;;;13.68;;
29412;SDS011;16389;50.126;8.450;2023-02-15T00:29:23;32.05;;;12.07;;
29412;SDS011;16389;50.126;8.450;2023-02-15T00:31:49;57.85;;;15.02;;
29412;SDS011;16389;50.126;8.450;2023-02-15T00:34:18;44.10;;;13.15;;
29412;SDS011;16389;50.126;8.450;2023-02-15T00:36:45;51.13;;;15.00;;
29412;SDS011;16389;50.126;8.450;2023-02-15T00:39:11;61.05;;;13.98;;
29412;SDS011;16389;50.126;8.450;2023-02-15T00:41:38;37.90;;;13.15;;
29412;SDS011;16389;50.126;8.450;2023-02-15T00:44:04;53.80;;;14.57;;
29412;SDS011;16389;50.126;8.450;2023-02-15T00:46:30;66.30;;;14.95;;
29412;SDS011;16389;50.126;8.450;2023-02-15T00:48:56;51.75;;;14.05;;
29412;SDS011;16389;50.126;8.450;2023-02-15T00:51:22;47.85;;;14.00;;
29412;SDS011;16389;50.126;8.450;2023-02-15T00:53:48;41.35;;;14.13;;
29412;SDS011;16389;50.126;8.450;2023-02-15T00:56:14;47.28;;;14.88;;
29412;SDS011;16389;50.126;8.450;2023-02-15T00:58:40;41.17;;;15.07;;
29412;SDS011;16389;50.126;8.450;2023-02-15T01:01:16;43.05;;;13.80;;
29412;SDS011;16389;50.126;8.450;2023-02-15T01:03:43;46.92;;;14.35;;
29412;SDS011;16389;50.126;8.450;2023-02-15T01:06:10;75.43;;;15.07;;
29412;SDS011;16389;50.126;8.450;2023-02-15T01:08:36;43.67;;;12.77;;
29412;SDS011;16389;50.126;8.450;2023-02-15T01:11:03;38.38;;;12.95;;
29412;SDS011;16389;50.126;8.450;2023-02-15T01:13:30;59.25;;;14.45;;
29412;SDS011;16389;50.126;8.450;2023-02-15T01:15:57;53.05;;;13.80;;
29412;SDS011;16389;50.126;8.450;2023-02-15T01:18:22;44.78;;;14.77;;
29412;SDS011;16389;50.126;8.450;2023-02-15T01:20:48;40.25;;;13.73;;
29412;SDS011;16389;50.126;8.450;2023-02-15T01:23:14;55.60;;;14.75;;
29412;SDS011;16389;50.126;8.450;2023-02-15T01:25:40;31.77;;;12.90;;
29412;SDS011;16389;50.126;8.450;2023-02-15T01:28:05;59.35;;;14.77;;
29412;SDS011;16389;50.126;8.450;2023-02-15T01:30:31;46.85;;;15.80;;
29412;SDS011;16389;50.126;8.450;2023-02-15T01:32:57;50.75;;;14.55;;
29412;SDS011;16389;50.126;8.450;2023-02-15T01:35:25;47.10;;;13.13;;
29412;SDS011;16389;50.126;8.450;2023-02-15T01:37:52;36.50;;;14.57;;
29412;SDS011;16389;50.126;8.450;2023-02-15T01:40:18;33.83;;;12.77;;
29412;SDS011;16389;50.126;8.450;2023-02-15T01:42:44;46.85;;;15.88;;
29412;SDS011;16389;50.126;8.450;2023-02-15T01:45:29;37.75;;;11.95;;
29412;SDS011;16389;50.126;8.450;2023-02-15T01:48:06;30.25;;;12.07;;
29412;SDS011;16389;50.126;8.450;2023-02-15T01:50:43;33.28;;;14.07;;
29412;SDS011;16389;50.126;8.450;2023-02-15T01:53:22;33.35;;;13.75;;
29412;SDS011;16389;50.126;8.450;2023-02-15T01:58:20;51.75;;;14.00;;
29412;SDS011;16389;50.126;8.450;2023-02-15T02:00:47;34.58;;;13.50;;
29412;SDS011;16389;50.126;8.450;2023-02-15T02:03:12;48.42;;;12.95;;
29412;SDS011;16389;50.126;8.450;2023-02-15T02:05:39;41.45;;;14.13;;
29412;SDS011;16389;50.126;8.450;2023-02-15T02:08:06;38.42;;;14.02;;
29412;SDS011;16389;50.126;8.450;2023-02-15T02:10:34;33.25;;;12.35;;
29412;SDS011;16389;50.126;8.450;2023-02-15T02:13:02;29.70;;;12.07;;
29412;SDS011;16389;50.126;8.450;2023-02-15T02:15:40;36.47;;;15.02;;
29412;SDS011;16389;50.126;8.450;2023-02-15T02:23:42;38.45;;;13.70;;
29412;SDS011;16389;50.126;8.450;2023-02-15T02:41:07;78.80;;;17.70;;
29412;SDS011;16389;50.126;8.450;2023-02-15T02:43:43;41.45;;;15.13;;
29412;SDS011;16389;50.126;8.450;2023-02-15T02:46:31;41.35;;;14.52;;
29412;SDS011;16389;50.126;8.450;2023-02-15T02:48:57;55.75;;;14.52;;
29412;SDS011;16389;50.126;8.450;2023-02-15T02:51:23;45.65;;;15.48;;
29412;SDS011;16389;50.126;8.450;2023-02-15T02:53:59;31.73;;;14.23;;
29412;SDS011;16389;50.126;8.450;2023-02-15T02:59:08;47.00;;;15.30;;
29412;SDS011;16389;50.126;8.450;2023-02-15T03:01:45;34.50;;;12.68;;
29412;SDS011;16389;50.126;8.450;2023-02-15T03:04:21;40.33;;;15.43;;
29412;SDS011;16389;50.126;8.450;2023-02-15T03:06:52;34.58;;;12.25;;
29412;SDS011;16389;50.126;8.450;2023-02-15T03:09:24;43.17;;;14.30;;
29412;SDS011;16389;50.126;8.450;2023-02-15T03:12:08;38.50;;;13.50;;
29412;SDS011;16389;50.126;8.450;2023-02-15T03:15:24;44.72;;;13.45;;
29412;SDS011;16389;50.126;8.450;2023-02-15T03:17:46;37.72;;;14.63;;
29412;SDS011;16389;50.126;8.450;2023-02-15T03:25:30;42.78;;;11.82;;
29412;SDS011;16389;50.126;8.450;2023-02-15T03:28:01;49.40;;;14.70;;
29412;SDS011;16389;50.126;8.450;2023-02-15T03:30:30;37.17;;;13.00;;
29412;SDS011;16389;50.126;8.450;2023-02-15T03:32:58;34.10;;;12.88;;
29412;SDS011;16389;50.126;8.450;2023-02-15T03:35:25;39.75;;;14.43;;
29412;SDS011;16389;50.126;8.450;2023-02-15T03:38:00;33.35;;;14.07;;
29412;SDS011;16389;50.126;8.450;2023-02-15T03:40:32;35.60;;;13.90;;
29412;SDS011;16389;50.126;8.450;2023-02-15T03:43:48;37.70;;;14.38;;
29412;SDS011;16389;50.126;8.450;2023-02-15T03:46:28;38.53;;;13.98;;
29412;SDS011;16389;50.126;8.450;2023-02-15T03:49:08;33.85;;;13.52;;
29412;SDS011;16389;50.126;8.450;2023-02-15T03:51:40;51.70;;;14.30;;
29412;SDS011;16389;50.126;8.450;2023-02-15T03:56:59;51.00;;;14.27;;
29412;SDS011;16389;50.126;8.450;2023-02-15T03:59:45;46.08;;;14.05;;
29412;SDS011;16389;50.126;8.450;2023-02-15T04:02:32;38.22;;;14.80;;
29412;SDS011;16389;50.126;8.450;2023-02-15T04:05:05;74.05;;;15.85;;
29412;SDS011;16389;50.126;8.450;2023-02-15T04:07:30;39.35;;;13.35;;
29412;SDS011;16389;50.126;8.450;2023-02-15T04:09:56;56.00;;;15.27;;
29412;SDS011;16389;50.126;8.450;2023-02-15T04:12:40;47.97;;;15.07;;
29412;SDS011;16389;50.126;8.450;2023-02-15T04:15:06;43.65;;;13.30;;
29412;SDS011;16389;50.126;8.450;2023-02-15T04:17:52;47.25;;;13.05;;
29412;SDS011;16389;50.126;8.450;2023-02-15T04:20:17;54.47;;;17.80;;
29412;SDS011;16389;50.126;8.450;2023-02-15T04:23:05;54.20;;;14.85;;
29412;SDS011;16389;50.126;8.450;2023-02-15T04:25:49;39.58;;;15.88;;
29412;SDS011;16389;50.126;8.450;2023-02-15T04:28:15;73.68;;;15.57;;
29412;SDS011;16389;50.126;8.450;2023-02-15T04:30:41;44.92;;;14.48;;
29412;SDS011;16389;50.126;8.450;2023-02-15T04:33:06;72.82;;;16.90;;
29412;SDS011;16389;50.126;8.450;2023-02-15T04:35:32;42.42;;;16.27;;
29412;SDS011;16389;50.126;8.450;2023-02-15T04:37:58;60.58;;;15.93;;
29412;SDS011;16389;50.126;8.450;2023-02-15T04:40:24;69.07;;;19.38;;
29412;SDS011;16389;50.126;8.450;2023-02-15T04:42:50;51.88;;;17.73;;
29412;SDS011;16389;50.126;8.450;2023-02-15T04:45:16;53.88;;;15.68;;
29412;SDS011;16389;50.126;8.450;2023-02-15T04:47:42;66.80;;;15.82;;
29412;SDS011;16389;50.126;8.450;2023-02-15T04:50:08;64.75;;;17.90;;
29412;SDS011;16389;50.126;8.450;2023-02-15T04:52:34;50.40;;;15.88;;
29412;SDS011;16389;50.126;8.450;2023-02-15T04:55:00;50.70;;;15.68;;
29412;SDS011;16389;50.126;8.450;2023-02-15T04:57:25;72.10;;;18.13;;
29412;SDS011;16389;50.126;8.450;2023-02-15T04:59:51;47.30;;;15.38;;
29412;SDS011;16389;50.126;8.450;2023-02-15T05:02:16;70.18;;;17.85;;
29412;SDS011;16389;50.126;8.450;2023-02-15T05:04:42;52.40;;;16.48;;
29412;SDS011;16389;50.126;8.450;2023-02-15T05:07:08;46.92;;;16.25;;
29412;SDS011;16389;50.126;8.450;2023-02-15T05:09:33;50.33;;;18.23;;
29412;SDS011;16389;50.126;8.450;2023-02-15T05:11:59;53.53;;;17.65;;
29412;SDS011;16389;50.126;8.450;2023-02-15T05:14:24;47.67;;;17.50;;
29412;SDS011;16389;50.126;8.450;2023-02-15T05:16:50;55.42;;;17.38;;
29412;SDS011;16389;50.126;8.450;2023-02-15T05:19:16;60.50;;;18.05;;
29412;SDS011;16389;50.126;8.450;2023-02-15T05:21:41;69.32;;;17.85;;
29412;SDS011;16389;50.126;8.450;2023-02-15T05:24:07;52.15;;;18.67;;
29412;SDS011;16389;50.126;8.450;2023-02-15T05:26:51;55.83;;;17.48;;
29412;SDS011;16389;50.126;8.450;2023-02-15T05:29:35;53.45;;;14.40;;
29412;SDS011;16389;50.126;8.450;2023-02-15T05:32:01;56.42;;;17.70;;
29412;SDS011;16389;50.126;8.450;2023-02-15T05:34:27;63.92;;;15.65;;
29412;SDS011;16389;50.126;8.450;2023-02-15T05:36:53;59.78;;;15.43;;
29412;SDS011;16389;50.126;8.450;2023-02-15T05:39:18;56.78;;;13.85;;
29412;SDS011;16389;50.126;8.450;2023-02-15T05:41:44;58.60;;;14.98;;
29412;SDS011;16389;50.126;8.450;2023-02-15T05:44:09;58.15;;;15.02;;
29412;SDS011;16389;50.126;8.450;2023-02-15T05:46:35;53.80;;;15.00;;
29412;SDS011;16389;50.126;8.450;2023-02-15T05:49:01;63.05;;;14.48;;
29412;SDS011;16389;50.126;8.450;2023-02-15T05:51:26;55.35;;;14.88;;
29412;SDS011;16389;50.126;8.450;2023-02-15T05:53:52;70.45;;;14.43;;
29412;SDS011;16389;50.126;8.450;2023-02-15T05:56:17;56.35;;;16.70;;
29412;SDS011;16389;50.126;8.450;2023-02-15T05:58:43;54.47;;;16.58;;
29412;SDS011;16389;50.126;8.450;2023-02-15T06:01:16;58.17;;;15.75;;
29412;SDS011;16389;50.126;8.450;2023-02-15T06:03:43;57.95;;;15.85;;
29412;SDS011;16389;50.126;8.450;2023-02-15T06:06:10;44.38;;;14.43;;
29412;SDS011;16389;50.126;8.450;2023-02-15T06:08:36;51.42;;;16.80;;
29412;SDS011;16389;50.126;8.450;2023-02-15T06:11:02;53.13;;;17.15;;
29412;SDS011;16389;50.126;8.450;2023-02-15T06:13:29;73.53;;;15.82;;
29412;SDS011;16389;50.126;8.450;2023-02-15T06:15:55;63.58;;;14.88;;
29412;SDS011;16389;50.126;8.450;2023-02-15T06:18:20;49.40;;;16.30;;
29412;SDS011;16389;50.126;8.450;2023-02-15T06:20:46;61.13;;;14.88;;
29412;SDS011;16389;50.126;8.450;2023-02-15T06:23:12;58.83;;;14.52;;
29412;SDS011;16389;50.126;8.450;2023-02-15T06:25:38;53.63;;;16.30;;
29412;SDS011;16389;50.126;8.450;2023-02-15T06:28:04;47.85;;;16.02;;
29412;SDS011;16389;50.126;8.450;2023-02-15T06:30:29;54.53;;;14.77;;
29412;SDS011;16389;50.126;8.450;2023-02-15T06:32:55;54.90;;;16.90;;
29412;SDS011;16389;50.126;8.450;2023-02-15T06:35:21;54.42;;;16.48;;
29412;SDS011;16389;50.126;8.450;2023-02-15T06:37:47;54.92;;;16.55;;
29412;SDS011;16389;50.126;8.450;2023-02-15T06:40:12;58.45;;;14.57;;
29412;SDS011;16389;50.126;8.450;2023-02-15T06:42:39;64.75;;;15.38;;
29412;SDS011;16389;50.126;8.450;2023-02-15T06:45:05;70.55;;;13.85;;
29412;SDS011;16389;50.126;8.450;2023-02-15T06:47:32;55.25;;;12.85;;
29412;SDS011;16389;50.126;8.450;2023-02-15T06:49:57;38.25;;;13.88;;
29412;SDS011;16389;50.126;8.450;2023-02-15T06:52:23;51.30;;;14.73;;
29412;SDS011;16389;50.126;8.450;2023-02-15T06:54:48;36.28;;;12.93;;
29412;SDS011;16389;50.126;8.450;2023-02-15T06:57:14;59.35;;;14.27;;
29412;SDS011;16389;50.126;8.450;2023-02-15T06:59:40;54.33;;;13.07;;
29412;SDS011;16389;50.126;8.450;2023-02-15T07:02:06;46.40;;;12.90;;
29412;SDS011;16389;50.126;8.450;2023-02-15T07:04:33;61.92;;;12.35;;
29412;SDS011;16389;50.126;8.450;2023-02-15T07:06:58;42.80;;;10.52;;
29412;SDS011;16389;50.126;8.450;2023-02-15T07:09:24;57.22;;;13.32;;
29412;SDS011;16389;50.126;8.450;2023-02-15T07:11:50;46.45;;;11.27;;
29412;SDS011;16389;50.126;8.450;2023-02-15T07:14:34;38.25;;;12.68;;
29412;SDS011;16389;50.126;8.450;2023-02-15T07:16:59;36.38;;;11.48;;
29412;SDS011;16389;50.126;8.450;2023-02-15T07:19:25;36.63;;;11.85;;
29412;SDS011;16389;50.126;8.450;2023-02-15T07:21:51;36.63;;;12.27;;
29412;SDS011;16389;50.126;8.450;2023-02-15T07:24:16;55.35;;;13.10;;
29412;SDS011;16389;50.126;8.450;2023-02-15T07:26:42;36.10;;;12.48;;
29412;SDS011;16389;50.126;8.450;2023-02-15T07:29:08;43.53;;;12.02;;
29412;SDS011;16389;50.126;8.450;2023-02-15T07:31:33;38.67;;;12.38;;
29412;SDS011;16389;50.126;8.450;2023-02-15T07:33:59;38.95;;;11.48;;
29412;SDS011;16389;50.126;8.450;2023-02-15T07:36:25;35.83;;;11.82;;
29412;SDS011;16389;50.126;8.450;2023-02-15T07:38:51;37.30;;;9.52;;
29412;SDS011;16389;50.126;8.450;2023-02-15T07:41:16;29.27;;;9.05;;
29412;SDS011;16389;50.126;8.450;2023-02-15T07:43:43;28.67;;;8.82;;
29412;SDS011;16389;50.126;8.450;2023-02-15T07:46:10;28.95;;;9.88;;
29412;SDS011;16389;50.126;8.450;2023-02-15T07:48:38;27.65;;;10.98;;
29412;SDS011;16389;50.126;8.450;2023-02-15T07:51:05;25.92;;;8.25;;
29412;SDS011;16389;50.126;8.450;2023-02-15T07:53:33;17.25;;;7.63;;
29412;SDS011;16389;50.126;8.450;2023-02-15T07:55:59;17.77;;;7.68;;
29412;SDS011;16389;50.126;8.450;2023-02-15T07:58:31;16.05;;;5.80;;
29412;SDS011;16389;50.126;8.450;2023-02-15T08:01:15;16.45;;;7.53;;
29412;SDS011;16389;50.126;8.450;2023-02-15T08:03:46;17.88;;;8.20;;
29412;SDS011;16389;50.126;8.450;2023-02-15T08:06:11;19.70;;;8.50;;
29412;SDS011;16389;50.126;8.450;2023-02-15T08:08:38;18.98;;;7.55;;
29412;SDS011;16389;50.126;8.450;2023-02-15T08:11:20;26.00;;;9.13;;
29412;SDS011;16389;50.126;8.450;2023-02-15T08:13:54;22.17;;;8.60;;
29412;SDS011;16389;50.126;8.450;2023-02-15T08:16:28;18.13;;;6.70;;
29412;SDS011;16389;50.126;8.450;2023-02-15T08:18:58;18.15;;;8.63;;
29412;SDS011;16389;50.126;8.450;2023-02-15T08:21:26;21.85;;;8.15;;
29412;SDS011;16389;50.126;8.450;2023-02-15T08:23:53;17.13;;;8.93;;
29412;SDS011;16389;50.126;8.450;2023-02-15T08:26:19;17.80;;;7.57;;
29412;SDS011;16389;50.126;8.450;2023-02-15T08:28:45;23.67;;;8.50;;
29412;SDS011;16389;50.126;8.450;2023-02-15T08:31:11;16.02;;;6.97;;
29412;SDS011;16389;50.126;8.450;2023-02-15T08:33:39;15.82;;;7.10;;
29412;SDS011;16389;50.126;8.450;2023-02-15T08:36:10;22.83;;;8.20;;
29412;SDS011;16389;50.126;8.450;2023-02-15T08:38:38;17.67;;;7.57;;
29412;SDS011;16389;50.126;8.450;2023-02-15T08:43:41;15.18;;;7.47;;
29412;SDS011;16389;50.126;8.450;2023-02-15T08:46:07;18.63;;;7.82;;
29412;SDS011;16389;50.126;8.450;2023-02-15T08:48:34;21.63;;;7.78;;
29412;SDS011;16389;50.126;8.450;2023-02-15T08:51:03;18.48;;;8.20;;
29412;SDS011;16389;50.126;8.450;2023-02-15T08:53:31;19.85;;;6.72;;
29412;SDS011;16389;50.126;8.450;2023-02-15T08:55:57;24.08;;;8.48;;
29412;SDS011;16389;50.126;8.450;2023-02-15T08:58:23;27.48;;;6.88;;
29412;SDS011;16389;50.126;8.450;2023-02-15T09:00:49;22.90;;;6.95;;
29412;SDS011;16389;50.126;8.450;2023-02-15T09:03:15;14.40;;;8.07;;
29412;SDS011;16389;50.126;8.450;2023-02-15T09:05:41;16.80;;;7.97;;
29412;SDS011;16389;50.126;8.450;2023-02-15T09:08:07;20.92;;;7.88;;
29412;SDS011;16389;50.126;8.450;2023-02-15T09:10:32;21.98;;;8.60;;
29412;SDS011;16389;50.126;8.450;2023-02-15T09:12:58;12.52;;;6.40;;
29412;SDS011;16389;50.126;8.450;2023-02-15T09:15:23;25.20;;;8.23;;
29412;SDS011;16389;50.126;8.450;2023-02-15T09:17:49;11.93;;;6.70;;
29412;SDS011;16389;50.126;8.450;2023-02-15T09:20:15;14.50;;;7.13;;
29412;SDS011;16389;50.126;8.450;2023-02-15T09:22:40;19.58;;;7.68;;
29412;SDS011;16389;50.126;8.450;2023-02-15T09:25:06;28.83;;;8.40;;
29412;SDS011;16389;50.126;8.450;2023-02-15T09:27:32;13.73;;;7.50;;
29412;SDS011;16389;50.126;8.450;2023-02-15T09:29:57;14.80;;;8.38;;
29412;SDS011;16389;50.126;8.450;2023-02-15T09:32:23;19.45;;;7.80;;
29412;SDS011;16389;50.126;8.450;2023-02-15T09:34:49;23.50;;;8.02;;
29412;SDS011;16389;50.126;8.450;2023-02-15T09:37:14;19.88;;;7.47;;
29412;SDS011;16389;50.126;8.450;2023-02-15T09:39:41;14.77;;;7.35;;
29412;SDS011;16389;50.126;8.450;2023-02-15T10:01:38;12.55;;;6.88;;
29412;SDS011;16389;50.126;8.450;2023-02-15T10:04:30;17.48;;;7.40;;
29412;SDS011;16389;50.126;8.450;2023-02-15T10:15:42;13.77;;;6.68;;
29412;SDS011;16389;50.126;8.450;2023-02-15T10:21:19;22.35;;;7.60;;
29412;SDS011;16389;50.126;8.450;2023-02-15T10:27:12;10.43;;;6.03;;
29412;SDS011;16389;50.126;8.450;2023-02-15T10:32:30;18.98;;;7.70;;
29412;SDS011;16389;50.126;8.450;2023-02-15T10:37:45;12.82;;;6.53;;
29412;SDS011;16389;50.126;8.450;2023-02-15T10:49:07;13.13;;;7.53;;
29412;SDS011;16389;50.126;8.450;2023-02-15T10:54:37;17.17;;;6.80;;
29412;SDS011;16389;50.126;8.450;2023-02-15T11:00:02;22.83;;;8.50;;
29412;SDS011;16389;50.126;8.450;2023-02-15T11:08:19;15.73;;;7.10;;
29412;SDS011;16389;50.126;8.450;2023-02-15T11:10:49;17.70;;;6.60;;
29412;SDS011;16389;50.126;8.450;2023-02-15T11:13:19;20.95;;;8.52;;
29412;SDS011;16389;50.126;8.450;2023-02-15T11:15:51;17.05;;;7.05;;
29412;SDS011;16389;50.126;8.450;2023-02-15T11:18:21;15.57;;;8.63;;
29412;SDS011;16389;50.126;8.450;2023-02-15T11:23:28;19.20;;;7.85;;
29412;SDS011;16389;50.126;8.450;2023-02-15T11:26:04;16.45;;;6.95;;
29412;SDS011;16389;50.126;8.450;2023-02-15T11:28:38;15.05;;;8.25;;
29412;SDS011;16389;50.126;8.450;2023-02-15T11:31:15;16.40;;;8.27;;
29412;SDS011;16389;50.126;8.450;2023-02-15T11:33:44;20.05;;;9.50;;
29412;SDS011;16389;50.126;8.450;2023-02-15T11:36:15;23.65;;;9.55;;
29412;SDS011;16389;50.126;8.450;2023-02-15T11:38:47;19.50;;;9.80;;
29412;SDS011;16389;50.126;8.450;2023-02-15T11:41:18;22.50;;;9.15;;
29412;SDS011;16389;50.126;8.450;2023-02-15T11:46:23;19.00;;;9.10;;
29412;SDS011;16389;50.126;8.450;2023-02-15T11:48:49;18.13;;;8.63;;
29412;SDS011;16389;50.126;8.450;2023-02-15T11:51:15;19.05;;;8.93;;
29412;SDS011;16389;50.126;8.450;2023-02-15T11:53:43;19.08;;;9.52;;
29412;SDS011;16389;50.126;8.450;2023-02-15T11:56:17;27.70;;;11.40;;
29412;SDS011;16389;50.126;8.450;2023-02-15T11:58:49;16.25;;;8.15;;
29412;SDS011;16389;50.126;8.450;2023-02-15T12:01:32;19.33;;;8.15;;
29412;SDS011;16389;50.126;8.450;2023-02-15T12:07:09;22.48;;;10.55;;
29412;SDS011;16389;50.126;8.450;2023-02-15T12:09:47;18.55;;;8.50;;
29412;SDS011;16389;50.126;8.450;2023-02-15T12:14:47;24.95;;;8.68;;
29412;SDS011;16389;50.126;8.450;2023-02-15T12:17:24;18.02;;;8.90;;
29412;SDS011;16389;50.126;8.450;2023-02-15T12:19:54;25.75;;;8.48;;
29412;SDS011;16389;50.126;8.450;2023-02-15T12:22:27;21.60;;;8.48;;
29412;SDS011;16389;50.126;8.450;2023-02-15T12:24:59;18.48;;;8.90;;
29412;SDS011;16389;50.126;8.450;2023-02-15T12:27:30;20.60;;;8.63;;
29412;SDS011;16389;50.126;8.450;2023-02-15T12:30:00;17.38;;;9.05;;
29412;SDS011;16389;50.126;8.450;2023-02-15T12:32:36;22.02;;;12.13;;
29412;SDS011;16389;50.126;8.450;2023-02-15T12:35:33;19.90;;;9.95;;
29412;SDS011;16389;50.126;8.450;2023-02-15T12:40:56;31.63;;;12.93;;
29412;SDS011;16389;50.126;8.450;2023-02-15T12:43:27;19.67;;;10.38;;
29412;SDS011;16389;50.126;8.450;2023-02-15T12:45:52;27.85;;;11.73;;
29412;SDS011;16389;50.126;8.450;2023-02-15T12:48:19;24.77;;;9.27;;
29412;SDS011;16389;50.126;8.450;2023-02-15T12:50:48;24.48;;;9.10;;
29412;SDS011;16389;50.126;8.450;2023-02-15T12:53:18;20.73;;;10.10;;
29412;SDS011;16389;50.126;8.450;2023-02-15T12:55:55;20.38;;;8.68;;
29412;SDS011;16389;50.126;8.450;2023-02-15T12:58:25;27.88;;;10.60;;
29412;SDS011;16389;50.126;8.450;2023-02-15T13:03:53;26.10;;;10.43;;
29412;SDS011;16389;50.126;8.450;2023-02-15T13:06:19;21.80;;;10.15;;
29412;SDS011;16389;50.126;8.450;2023-02-15T13:08:47;26.52;;;11.18;;
29412;SDS011;16389;50.126;8.450;2023-02-15T13:11:19;32.00;;;10.20;;
29412;SDS011;16389;50.126;8.450;2023-02-15T13:13:56;25.65;;;12.52;;
29412;SDS011;16389;50.126;8.450;2023-02-15T13:16:29;31.80;;;12.02;;
29412;SDS011;16389;50.126;8.450;2023-02-15T13:19:09;24.00;;;12.52;;
29412;SDS011;16389;50.126;8.450;2023-02-15T13:21:45;29.20;;;13.30;;
29412;SDS011;16389;50.126;8.450;2023-02-15T13:24:23;26.98;;;11.55;;
29412;SDS011;16389;50.126;8.450;2023-02-15T13:26:52;22.67;;;10.93;;
29412;SDS011;16389;50.126;8.450;2023-02-15T13:29:31;28.70;;;10.90;;
29412;SDS011;16389;50.126;8.450;2023-02-15T13:34:49;28.30;;;10.15;;
29412;SDS011;16389;50.126;8.450;2023-02-15T13:37:19;25.75;;;10.18;;
29412;SDS011;16389;50.126;8.450;2023-02-15T13:39:58;35.30;;;13.20;;
29412;SDS011;16389;50.126;8.450;2023-02-15T13:42:31;31.73;;;12.57;;
29412;SDS011;16389;50.126;8.450;2023-02-15T13:47:57;28.48;;;12.13;;
29412;SDS011;16389;50.126;8.450;2023-02-15T13:53:40;26.63;;;10.88;;
29412;SDS011;16389;50.126;8.450;2023-02-15T14:04:44;35.47;;;13.48;;
29412;SDS011;16389;50.126;8.450;2023-02-15T14:07:30;29.35;;;12.85;;
29412;SDS011;16389;50.126;8.450;2023-02-15T14:10:19;21.58;;;10.32;;
29412;SDS011;16389;50.126;8.450;2023-02-15T14:13:02;28.60;;;11.13;;
29412;SDS011;16389;50.126;8.450;2023-02-15T14:15:50;37.75;;;14.27;;
29412;SDS011;16389;50.126;8.450;2023-02-15T14:18:20;32.90;;;14.18;;
29412;SDS011;16389;50.126;8.450;2023-02-15T14:21:10;36.08;;;14.90;;
29412;SDS011;16389;50.126;8.450;2023-02-15T14:31:49;30.27;;;13.93;;
29412;SDS011;16389;50.126;8.450;2023-02-15T14:34:27;34.60;;;13.43;;
29412;SDS011;16389;50.126;8.450;2023-02-15T14:37:00;36.10;;;13.55;;
29412;SDS011;16389;50.126;8.450;2023-02-15T14:42:18;35.33;;;13.98;;
29412;SDS011;16389;50.126;8.450;2023-02-15T14:44:52;34.92;;;14.15;;
29412;SDS011;16389;50.126;8.450;2023-02-15T14:47:34;43.20;;;15.07;;
29412;SDS011;16389;50.126;8.450;2023-02-15T15:01:17;44.22;;;13.07;;
29412;SDS011;16389;50.126;8.450;2023-02-15T15:03:52;44.45;;;14.02;;
29412;SDS011;16389;50.126;8.450;2023-02-15T15:08:57;37.72;;;14.20;;
29412;SDS011;16389;50.126;8.450;2023-02-15T15:11:41;38.20;;;14.85;;
29412;SDS011;16389;50.126;8.450;2023-02-15T15:14:08;40.90;;;16.30;;
29412;SDS011;16389;50.126;8.450;2023-02-15T15:19:03;40.97;;;16.52;;
29412;SDS011;16389;50.126;8.450;2023-02-15T15:38:18;42.38;;;15.35;;
29412;SDS011;16389;50.126;8.450;2023-02-15T15:41:19;40.80;;;14.82;;
29412;SDS011;16389;50.126;8.450;2023-02-15T15:49:41;41.10;;;16.52;;
29412;SDS011;16389;50.126;8.450;2023-02-15T15:52:25;46.15;;;16.55;;
29412;SDS011;16389;50.126;8.450;2023-02-15T15:54:56;43.33;;;16.50;;
29412;SDS011;16389;50.126;8.450;2023-02-15T15:57:29;41.13;;;16.15;;
29412;SDS011;16389;50.126;8.450;2023-02-15T16:00:22;35.13;;;14.48;;
29412;SDS011;16389;50.126;8.450;2023-02-15T16:03:05;47.95;;;12.63;;
29412;SDS011;16389;50.126;8.450;2023-02-15T16:05:46;40.78;;;14.80;;
29412;SDS011;16389;50.126;8.450;2023-02-15T16:08:13;37.75;;;15.10;;
29412;SDS011;16389;50.126;8.450;2023-02-15T16:10:40;41.88;;;17.38;;
29412;SDS011;16389;50.126;8.450;2023-02-15T16:13:06;31.42;;;13.18;;
29412;SDS011;16389;50.126;8.450;2023-02-15T16:15:36;39.70;;;14.57;;
29412;SDS011;16389;50.126;8.450;2023-02-15T16:18:11;41.85;;;15.05;;
29412;SDS011;16389;50.126;8.450;2023-02-15T16:20:40;35.28;;;14.27;;
29412;SDS011;16389;50.126;8.450;2023-02-15T16:28:32;37.03;;;14.27;;
29412;SDS011;16389;50.126;8.450;2023-02-15T16:31:10;25.50;;;13.48;;
29412;SDS011;16389;50.126;8.450;2023-02-15T16:33:38;31.48;;;13.30;;
29412;SDS011;16389;50.126;8.450;2023-02-15T16:36:05;28.35;;;12.75;;
29412;SDS011;16389;50.126;8.450;2023-02-15T16:41:27;33.38;;;12.93;;
29412;SDS011;16389;50.126;8.450;2023-02-15T16:44:03;27.90;;;13.30;;
29412;SDS011;16389;50.126;8.450;2023-02-15T16:46:33;37.83;;;14.27;;
29412;SDS011;16389;50.126;8.450;2023-02-15T16:49:17;36.67;;;15.15;;
29412;SDS011;16389;50.126;8.450;2023-02-15T16:51:54;29.08;;;13.45;;
29412;SDS011;16389;50.126;8.450;2023-02-15T16:54:22;27.70;;;12.65;;
29412;SDS011;16389;50.126;8.450;2023-02-15T16:56:50;33.30;;;13.30;;
29412;SDS011;16389;50.126;8.450;2023-02-15T16:59:21;29.45;;;13.57;;
29412;SDS011;16389;50.126;8.450;2023-02-15T17:02:15;25.20;;;11.20;;
29412;SDS011;16389;50.126;8.450;2023-02-15T17:04:41;25.38;;;13.68;;
29412;SDS011;16389;50.126;8.450;2023-02-15T17:07:17;31.63;;;13.02;;
29412;SDS011;16389;50.126;8.450;2023-02-15T17:09:54;28.33;;;12.27;;
29412;SDS011;16389;50.126;8.450;2023-02-15T17:15:30;29.42;;;12.88;;
29412;SDS011;16389;50.126;8.450;2023-02-15T17:18:08;35.38;;;13.77;;
29412;SDS011;16389;50.126;8.450;2023-02-15T17:20:39;39.22;;;14.93;;
29412;SDS011;16389;50.126;8.450;2023-02-15T17:23:15;33.83;;;13.30;;
29412;SDS011;16389;50.126;8.450;2023-02-15T17:26:01;43.88;;;16.55;;
29412;SDS011;16389;50.126;8.450;2023-02-15T17:28:36;27.92;;;13.90;;
29412;SDS011;16389;50.126;8.450;2023-02-15T17:31:06;40.95;;;15.07;;
29412;SDS011;16389;50.126;8.450;2023-02-15T17:38:40;31.63;;;14.55;;
29412;SDS011;16389;50.126;8.450;2023-02-15T17:41:25;29.77;;;12.80;;
29412;SDS011;16389;50.126;8.450;2023-02-15T17:43:56;30.35;;;13.85;;
29412;SDS011;16389;50.126;8.450;2023-02-15T17:46:22;37.95;;;14.38;;
29412;SDS011;16389;50.126;8.450;2023-02-15T17:48:50;32.67;;;14.60;;
29412;SDS011;16389;50.126;8.450;2023-02-15T17:51:17;40.00;;;15.07;;
29412;SDS011;16389;50.126;8.450;2023-02-15T17:53:44;33.05;;;14.57;;
29412;SDS011;16389;50.126;8.450;2023-02-15T17:56:29;28.73;;;14.70;;
29412;SDS011;16389;50.126;8.450;2023-02-15T17:58:55;32.90;;;15.52;;
29412;SDS011;16389;50.126;8.450;2023-02-15T18:01:21;28.70;;;14.10;;